Time;durP1;ratioP1;P1;durP2;ratioP2;P2;SDS_P1;SDS_P2;PMS_P1;PMS_P2;Temp;Humidity;BMP_temperature;BMP_pressure;BME280_temperature;BME280_humidity;BME280_pressure;Samples;Min_cycle;Max_cycle;Signal;HPM_P1;HPM_P2
2021/07/25 00:01:36;;;;;;;;;;;22.70;99.90;;;;;;5048870;28;20368;-66
2021/07/25 00:04:01;;;;;;;;;;;22.70;99.90;;;;;;5068337;28;20316;-66
2021/07/25 00:06:26;;;;;;;;;;;22.60;99.90;;;;;;5061357;28;19964;-67
2021/07/25 00:08:52;;;;;;;;;;;22.60;99.90;;;;;;5068591;28;19916;-66
2021/07/25 00:11:20;;;;;;;;;;;22.60;99.90;;;;;;5066135;28;20062;-68
2021/07/25 00:13:51;;;;;;;;;;;22.60;99.90;;;;;;5049133;28;19921;-66
2021/07/25 00:16:16;;;;;;;;;;;22.60;99.90;;;;;;5069468;28;19912;-66
2021/07/25 00:18:42;;;;;;;;;;;22.50;99.90;;;;;;5050373;28;19912;-67
2021/07/25 00:21:13;;;;;;;;;;;22.50;99.90;;;;;;5068878;28;19958;-66
2021/07/25 00:23:47;;;;;;;;;;;22.50;99.90;;;;;;5061308;28;19956;-66
2021/07/25 00:26:24;;;;;;;;;;;22.50;99.90;;;;;;5068956;28;19973;-66
2021/07/25 00:28:50;;;;;;;;;;;22.50;99.90;;;;;;5069018;28;19909;-66
2021/07/25 00:31:17;;;;;;;;;;;22.50;99.90;;;;;;5060623;28;19908;-66
2021/07/25 00:33:45;;;;;;;;;;;22.40;99.90;;;;;;5067939;28;19904;-66
2021/07/25 00:36:11;;;;;;;;;;;22.40;99.90;;;;;;5068832;28;19981;-66
2021/07/25 00:38:37;;;;;;;;;;;22.50;99.90;;;;;;5046396;28;20355;-67
2021/07/25 00:41:07;;;;;;;;;;;22.40;99.90;;;;;;5063134;28;19912;-66
2021/07/25 00:43:32;;;;;;;;;;;22.40;99.90;;;;;;5067915;28;19999;-66
2021/07/25 00:45:58;;;;;;;;;;;22.30;99.90;;;;;;5057073;28;19988;-66
2021/07/25 00:48:31;;;;;;;;;;;22.30;99.90;;;;;;5062511;28;19950;-66
2021/07/25 00:50:59;;;;;;;;;;;22.30;99.90;;;;;;5068375;28;19973;-66
2021/07/25 00:53:25;;;;;;;;;;;22.30;99.90;;;;;;5068584;28;20364;-66
2021/07/25 00:55:54;;;;;;;;;;;22.30;99.90;;;;;;5046740;28;19916;-66
2021/07/25 00:58:19;;;;;;;;;;;22.30;99.90;;;;;;5065221;28;19932;-66
2021/07/25 01:00:46;;;;;;;;;;;22.30;99.90;;;;;;5068856;28;20368;-66
2021/07/25 01:03:22;;;;;;;;;;;22.30;99.90;;;;;;5068327;28;19904;-66
2021/07/25 01:05:53;;;;;;;;;;;22.30;99.90;;;;;;5060228;28;20345;-66
2021/07/25 01:08:28;;;;;;;;;;;22.30;99.90;;;;;;5068702;28;20400;-66
2021/07/25 01:10:55;;;;;;;;;;;22.30;99.90;;;;;;5050583;28;19935;-66
2021/07/25 01:13:27;;;;;;;;;;;22.30;99.90;;;;;;5063960;28;20336;-66
2021/07/25 01:15:53;;;;;;;;;;;22.30;99.90;;;;;;5052294;28;19927;-66
2021/07/25 01:18:21;;;;;;;;;;;22.30;99.90;;;;;;5067971;28;20330;-66
2021/07/25 01:20:46;;;;;;;;;;;22.30;99.90;;;;;;5068674;28;20433;-66
2021/07/25 01:23:12;;;;;;;;;;;22.30;99.90;;;;;;5052339;28;19932;-66
2021/07/25 01:25:39;;;;;;;;;;;22.30;99.90;;;;;;5048415;28;19974;-66
2021/07/25 01:28:11;;;;;;;;;;;22.20;99.90;;;;;;5048576;28;19957;-65
2021/07/25 01:30:38;;;;;;;;;;;22.20;99.90;;;;;;5051622;28;19916;-66
2021/07/25 01:33:08;;;;;;;;;;;22.20;99.90;;;;;;5070403;28;19935;-66
2021/07/25 01:35:42;;;;;;;;;;;22.20;99.90;;;;;;5070887;28;19957;-66
2021/07/25 01:38:10;;;;;;;;;;;22.10;99.90;;;;;;5072422;28;19904;-66
2021/07/25 01:40:35;;;;;;;;;;;22.10;99.90;;;;;;5068741;28;20028;-66
2021/07/25 01:43:06;;;;;;;;;;;22.10;99.90;;;;;;5033951;28;19916;-66
2021/07/25 01:45:34;;;;;;;;;;;22.10;99.90;;;;;;5053438;28;19947;-66
2021/07/25 01:48:02;;;;;;;;;;;22.10;99.90;;;;;;5072049;28;19904;-66
2021/07/25 01:50:28;;;;;;;;;;;22.00;99.90;;;;;;5065231;28;19926;-66
2021/07/25 01:52:55;;;;;;;;;;;22.00;99.90;;;;;;5072248;28;19953;-67
2021/07/25 01:55:21;;;;;;;;;;;22.00;99.90;;;;;;5072062;28;20329;-66
2021/07/25 01:57:49;;;;;;;;;;;22.00;99.90;;;;;;5070897;28;20069;-66
2021/07/25 02:00:17;;;;;;;;;;;22.00;99.90;;;;;;5071547;28;20354;-66
2021/07/25 02:02:44;;;;;;;;;;;22.00;99.90;;;;;;5071293;28;20027;-66
2021/07/25 02:05:12;;;;;;;;;;;22.00;99.90;;;;;;5066156;28;19912;-66
2021/07/25 02:07:38;;;;;;;;;;;22.00;99.90;;;;;;5072623;28;19945;-68
2021/07/25 02:10:03;;;;;;;;;;;21.90;99.90;;;;;;5081402;28;19974;-67
2021/07/25 02:12:31;;;;;;;;;;;22.00;99.90;;;;;;5074603;28;19931;-66
2021/07/25 02:14:59;;;;;;;;;;;21.90;99.90;;;;;;5069263;28;20365;-66
2021/07/25 02:17:24;;;;;;;;;;;22.00;99.90;;;;;;5064107;28;20552;-66
2021/07/25 02:19:50;;;;;;;;;;;21.90;99.90;;;;;;5070007;28;19928;-66
2021/07/25 02:22:15;;;;;;;;;;;21.90;99.90;;;;;;5071579;28;20356;-66
2021/07/25 02:24:41;;;;;;;;;;;21.90;99.90;;;;;;5056140;28;20395;-66
2021/07/25 02:27:07;;;;;;;;;;;21.80;99.90;;;;;;5071451;28;20353;-66
2021/07/25 02:29:32;;;;;;;;;;;21.80;99.90;;;;;;5071307;28;19912;-66
2021/07/25 02:31:58;;;;;;;;;;;21.90;99.90;;;;;;5063428;28;19974;-66
2021/07/25 02:34:25;;;;;;;;;;;21.80;99.90;;;;;;5051119;28;19970;-66
2021/07/25 02:36:53;;;;;;;;;;;21.80;99.90;;;;;;5040141;28;19905;-66
2021/07/25 02:39:18;;;;;;;;;;;21.80;99.90;;;;;;5059757;28;20317;-66
2021/07/25 02:41:44;;;;;;;;;;;21.80;99.90;;;;;;5052206;28;20075;-66
2021/07/25 02:44:09;;;;;;;;;;;21.70;99.90;;;;;;5052842;28;19927;-66
2021/07/25 02:46:35;;;;;;;;;;;21.70;99.90;;;;;;5069211;28;19959;-66
2021/07/25 02:49:01;;;;;;;;;;;21.70;99.90;;;;;;5070717;28;19920;-66
2021/07/25 02:51:27;;;;;;;;;;;21.70;99.90;;;;;;5056050;28;19908;-66
2021/07/25 02:53:52;;;;;;;;;;;21.70;99.90;;;;;;5052030;28;19909;-66
2021/07/25 02:56:17;;;;;;;;;;;21.70;99.90;;;;;;5058819;28;20367;-66
2021/07/25 02:58:46;;;;;;;;;;;21.70;99.90;;;;;;5069041;28;20321;-66
2021/07/25 03:01:12;;;;;;;;;;;21.70;99.90;;;;;;5070933;28;19908;-66
2021/07/25 03:03:38;;;;;;;;;;;21.70;99.90;;;;;;5070816;28;20010;-66
2021/07/25 03:06:05;;;;;;;;;;;21.80;99.90;;;;;;5070034;28;20001;-67
2021/07/25 03:08:33;;;;;;;;;;;21.70;99.90;;;;;;5068586;28;19908;-66
2021/07/25 03:11:05;;;;;;;;;;;21.70;99.90;;;;;;5070668;28;19912;-66
2021/07/25 03:13:33;;;;;;;;;;;21.60;99.90;;;;;;5070340;28;20320;-66
2021/07/25 03:16:05;;;;;;;;;;;21.60;99.90;;;;;;5068929;28;19908;-66
2021/07/25 03:18:33;;;;;;;;;;;21.60;99.90;;;;;;5052255;28;19912;-66
2021/07/25 03:21:02;;;;;;;;;;;21.60;99.90;;;;;;5070387;28;19950;-66
2021/07/25 03:23:33;;;;;;;;;;;21.60;99.90;;;;;;5068093;28;20337;-67
2021/07/25 03:25:59;;;;;;;;;;;21.60;99.90;;;;;;5069749;28;19915;-66
2021/07/25 03:28:24;;;;;;;;;;;21.60;99.90;;;;;;5070118;28;19912;-66
2021/07/25 03:30:50;;;;;;;;;;;21.60;99.90;;;;;;5070226;28;19909;-66
2021/07/25 03:33:18;;;;;;;;;;;21.60;99.90;;;;;;5068451;28;20355;-66
2021/07/25 03:35:44;;;;;;;;;;;21.50;99.90;;;;;;5066185;28;20322;-66
2021/07/25 03:38:10;;;;;;;;;;;21.50;99.90;;;;;;5050385;28;19927;-66
2021/07/25 03:40:35;;;;;;;;;;;21.50;99.90;;;;;;5059035;28;19926;-66
2021/07/25 03:43:03;;;;;;;;;;;21.60;99.90;;;;;;5069113;28;19916;-66
2021/07/25 03:45:34;;;;;;;;;;;21.60;99.90;;;;;;5068323;28;19912;-66
2021/07/25 03:48:02;;;;;;;;;;;21.70;99.90;;;;;;5039555;28;19909;-66
2021/07/25 03:50:27;;;;;;;;;;;21.70;99.90;;;;;;5064576;28;20269;-66
2021/07/25 03:52:56;;;;;;;;;;;21.60;99.90;;;;;;5068855;28;20026;-66
2021/07/25 03:55:26;;;;;;;;;;;21.60;99.90;;;;;;5065514;28;19927;-66
2021/07/25 03:57:56;;;;;;;;;;;21.60;99.90;;;;;;5049486;28;19904;-66
2021/07/25 04:00:21;;;;;;;;;;;21.70;99.90;;;;;;5031543;28;19904;-66
2021/07/25 04:02:47;;;;;;;;;;;21.70;99.90;;;;;;5049661;28;20012;-66
2021/07/25 04:05:18;;;;;;;;;;;21.60;99.90;;;;;;5061183;28;21396;-66
2021/07/25 04:07:43;;;;;;;;;;;21.60;99.90;;;;;;5069255;28;19938;-66
2021/07/25 04:10:16;;;;;;;;;;;21.60;99.90;;;;;;5053923;28;19912;-66
2021/07/25 04:12:42;;;;;;;;;;;21.50;99.90;;;;;;5049548;28;19909;-66
2021/07/25 04:15:08;;;;;;;;;;;21.50;99.90;;;;;;5055845;28;19914;-66
2021/07/25 04:17:36;;;;;;;;;;;21.60;99.90;;;;;;5069267;28;19911;-66
2021/07/25 04:20:07;;;;;;;;;;;21.60;99.90;;;;;;5069296;28;20398;-66
2021/07/25 04:22:39;;;;;;;;;;;21.50;99.90;;;;;;5065338;28;19916;-66
2021/07/25 04:25:06;;;;;;;;;;;21.40;99.90;;;;;;5049135;28;19918;-66
2021/07/25 04:27:34;;;;;;;;;;;21.40;99.90;;;;;;5034381;28;19909;-66
2021/07/25 04:29:59;;;;;;;;;;;21.50;99.90;;;;;;5068572;28;19912;-66
2021/07/25 04:32:25;;;;;;;;;;;21.50;99.90;;;;;;5053774;28;19909;-67
2021/07/25 04:34:51;;;;;;;;;;;21.40;99.90;;;;;;5050201;28;19916;-66
2021/07/25 04:37:29;;;;;;;;;;;21.40;99.90;;;;;;5032364;28;19920;-66
2021/07/25 04:39:55;;;;;;;;;;;21.40;99.90;;;;;;5049517;28;20388;-66
2021/07/25 04:42:22;;;;;;;;;;;21.40;99.90;;;;;;5064592;28;19908;-66
2021/07/25 04:44:59;;;;;;;;;;;21.30;99.90;;;;;;5051646;28;20451;-66
2021/07/25 04:47:32;;;;;;;;;;;21.20;99.90;;;;;;5069222;28;20002;-66
2021/07/25 04:50:05;;;;;;;;;;;21.20;99.90;;;;;;5063504;28;20236;-66
2021/07/25 04:52:38;;;;;;;;;;;21.20;99.90;;;;;;5070050;28;19944;-66
2021/07/25 04:55:05;;;;;;;;;;;21.20;99.90;;;;;;5051578;28;19924;-66
2021/07/25 04:57:35;;;;;;;;;;;21.20;99.90;;;;;;5068360;28;19916;-66
2021/07/25 05:00:01;;;;;;;;;;;21.20;99.90;;;;;;5054513;28;19915;-66
2021/07/25 05:02:27;;;;;;;;;;;21.30;99.90;;;;;;5054726;28;19904;-66
2021/07/25 05:04:55;;;;;;;;;;;21.30;99.90;;;;;;5056313;28;19960;-66
2021/07/25 05:07:21;;;;;;;;;;;21.30;99.90;;;;;;5067911;28;19938;-66
2021/07/25 05:09:46;;;;;;;;;;;21.30;99.90;;;;;;5069313;28;20252;-66
2021/07/25 05:12:14;;;;;;;;;;;21.40;99.90;;;;;;5043094;23;19967;-68
2021/07/25 05:14:41;;;;;;;;;;;21.40;99.90;;;;;;5048774;28;19909;-69
2021/07/25 05:17:07;;;;;;;;;;;21.40;99.90;;;;;;5051704;28;19999;-66
2021/07/25 05:19:51;;;;;;;;;;;21.50;99.90;;;;;;5050762;28;19988;-67
2021/07/25 05:22:29;;;;;;;;;;;21.60;99.90;;;;;;5018566;28;19920;-67
2021/07/25 05:24:54;;;;;;;;;;;21.70;99.90;;;;;;5036649;28;19913;-67
2021/07/25 05:27:24;;;;;;;;;;;21.80;99.90;;;;;;5051746;28;19909;-68
2021/07/25 05:30:00;;;;;;;;;;;;;;;;;;;;;
2021/07/25 05:32:31;;;;;;;;;;;21.70;99.90;;;;;;5031730;28;19905;-67
2021/07/25 05:34:56;;;;;;;;;;;21.70;99.90;;;;;;5030090;28;19913;-67
2021/07/25 05:37:24;;;;;;;;;;;21.70;99.90;;;;;;5031393;28;19915;-66
2021/07/25 05:39:52;;;;;;;;;;;21.80;99.90;;;;;;5031281;28;19935;-67
2021/07/25 05:42:18;;;;;;;;;;;21.70;99.90;;;;;;5031111;28;20278;-68
2021/07/25 05:44:43;;;;;;;;;;;21.70;99.90;;;;;;5018143;28;19910;-68
2021/07/25 05:47:11;;;;;;;;;;;21.70;99.90;;;;;;5012305;28;19909;-67
2021/07/25 05:49:36;;;;;;;;;;;21.60;99.90;;;;;;5031253;28;19913;-69
2021/07/25 05:52:02;;;;;;;;;;;21.60;99.90;;;;;;5036173;28;19943;-67
2021/07/25 05:54:27;;;;;;;;;;;21.70;99.90;;;;;;5028643;28;19916;-67
2021/07/25 05:56:53;;;;;;;;;;;21.70;99.90;;;;;;5031301;28;20333;-67
2021/07/25 05:59:18;;;;;;;;;;;21.70;99.90;;;;;;5031364;28;19944;-67
2021/07/25 06:01:44;;;;;;;;;;;21.60;99.90;;;;;;5012623;28;20030;-67
2021/07/25 06:04:10;;;;;;;;;;;21.70;99.90;;;;;;5018166;28;20274;-68
2021/07/25 06:06:36;;;;;;;;;;;21.70;99.90;;;;;;5008039;28;19924;-67
2021/07/25 06:09:06;;;;;;;;;;;21.70;99.90;;;;;;5008397;28;19955;-67
2021/07/25 06:11:31;;;;;;;;;;;21.70;99.90;;;;;;5012188;28;19913;-67
2021/07/25 06:13:57;;;;;;;;;;;21.80;99.90;;;;;;5029876;28;19945;-69
2021/07/25 06:16:23;;;;;;;;;;;21.80;99.90;;;;;;5022986;28;19959;-67
2021/07/25 06:18:48;;;;;;;;;;;21.90;99.90;;;;;;5033749;28;19908;-67
2021/07/25 06:21:14;;;;;;;;;;;21.90;99.90;;;;;;5033631;28;20444;-67
2021/07/25 06:23:40;;;;;;;;;;;22.00;99.90;;;;;;5029830;28;20296;-68
2021/07/25 06:26:05;;;;;;;;;;;22.00;99.90;;;;;;5015974;28;19916;-67
2021/07/25 06:28:30;;;;;;;;;;;22.00;99.90;;;;;;5015517;28;20338;-68
2021/07/25 06:30:56;;;;;;;;;;;22.00;99.90;;;;;;5034481;28;19904;-67
2021/07/25 06:33:21;;;;;;;;;;;22.00;99.90;;;;;;5039240;28;19909;-67
2021/07/25 06:35:49;;;;;;;;;;;22.00;99.90;;;;;;5034416;28;19939;-67
2021/07/25 06:38:15;;;;;;;;;;;22.00;99.90;;;;;;5034041;28;19909;-67
2021/07/25 06:40:42;;;;;;;;;;;22.10;99.90;;;;;;5013878;28;19920;-67
2021/07/25 06:43:08;;;;;;;;;;;22.10;99.90;;;;;;5026026;28;20069;-67
2021/07/25 06:45:34;;;;;;;;;;;22.20;99.90;;;;;;5015828;28;19905;-67
2021/07/25 06:48:00;;;;;;;;;;;22.20;99.90;;;;;;5033702;28;19909;-67
2021/07/25 06:50:26;;;;;;;;;;;22.20;99.90;;;;;;5032589;28;20005;-69
2021/07/25 06:52:52;;;;;;;;;;;22.30;99.90;;;;;;5021326;28;19905;-69
2021/07/25 06:55:18;;;;;;;;;;;22.40;99.90;;;;;;5032628;28;19909;-66
2021/07/25 06:57:44;;;;;;;;;;;22.50;99.90;;;;;;5033564;28;20012;-67
2021/07/25 07:00:10;;;;;;;;;;;22.50;99.90;;;;;;5040440;28;19952;-68
2021/07/25 07:02:54;;;;;;;;;;;22.50;99.90;;;;;;5012333;28;19944;-68
2021/07/25 07:05:21;;;;;;;;;;;22.60;99.90;;;;;;5033306;28;19959;-68
2021/07/25 07:07:50;;;;;;;;;;;22.60;99.90;;;;;;5040010;28;19912;-68
2021/07/25 07:10:17;;;;;;;;;;;22.50;99.90;;;;;;5032729;28;20332;-68
2021/07/25 07:12:44;;;;;;;;;;;22.50;99.90;;;;;;5033278;28;19917;-67
2021/07/25 07:15:10;;;;;;;;;;;22.60;99.90;;;;;;5014121;28;19964;-66
2021/07/25 07:17:37;;;;;;;;;;;22.70;99.90;;;;;;5014383;28;20003;-66
2021/07/25 07:20:04;;;;;;;;;;;22.70;99.90;;;;;;5033542;28;19963;-66
2021/07/25 07:22:30;;;;;;;;;;;22.80;99.90;;;;;;5033186;28;20008;-67
2021/07/25 07:24:56;;;;;;;;;;;22.90;99.90;;;;;;5032724;28;19912;-69
2021/07/25 07:27:22;;;;;;;;;;;22.90;99.90;;;;;;5032261;28;20284;-68
2021/07/25 07:29:48;;;;;;;;;;;23.00;99.90;;;;;;5032238;28;19913;-68
2021/07/25 07:32:13;;;;;;;;;;;23.00;99.90;;;;;;5024373;28;19909;-68
2021/07/25 07:34:39;;;;;;;;;;;23.00;99.90;;;;;;5016753;28;19908;-68
2021/07/25 07:37:04;;;;;;;;;;;23.10;99.90;;;;;;5033171;28;19905;-68
2021/07/25 07:39:30;;;;;;;;;;;23.10;99.90;;;;;;5032717;28;19982;-68
2021/07/25 07:41:55;;;;;;;;;;;23.00;99.90;;;;;;5032421;28;20388;-68
2021/07/25 07:44:21;;;;;;;;;;;23.10;99.90;;;;;;5031860;28;19909;-68
2021/07/25 07:46:46;;;;;;;;;;;23.20;99.90;;;;;;5013605;28;19916;-68
2021/07/25 07:49:12;;;;;;;;;;;23.30;99.90;;;;;;5031607;28;19917;-68
2021/07/25 07:51:37;;;;;;;;;;;23.30;99.90;;;;;;5023766;28;19909;-68
2021/07/25 07:54:03;;;;;;;;;;;23.30;99.90;;;;;;5012812;28;19905;-68
2021/07/25 07:56:31;;;;;;;;;;;23.40;99.90;;;;;;5006368;28;20008;-68
2021/07/25 07:58:56;;;;;;;;;;;23.40;99.90;;;;;;5018287;28;19910;-68
2021/07/25 08:01:22;;;;;;;;;;;23.50;99.90;;;;;;5022919;28;19967;-68
2021/07/25 08:03:47;;;;;;;;;;;23.50;99.90;;;;;;5015361;28;19959;-68
2021/07/25 08:06:13;;;;;;;;;;;23.50;99.90;;;;;;5025837;28;20327;-68
2021/07/25 08:08:38;;;;;;;;;;;23.50;99.90;;;;;;5020256;28;19909;-69
2021/07/25 08:11:04;;;;;;;;;;;23.60;99.90;;;;;;5032372;28;20004;-68
2021/07/25 08:13:29;;;;;;;;;;;23.60;99.90;;;;;;5017423;28;19917;-68
2021/07/25 08:15:54;;;;;;;;;;;23.70;99.90;;;;;;5032032;28;19912;-68
2021/07/25 08:18:20;;;;;;;;;;;23.70;99.90;;;;;;5038458;28;19916;-68
2021/07/25 08:20:45;;;;;;;;;;;23.70;99.90;;;;;;5032495;28;20285;-68
2021/07/25 08:23:11;;;;;;;;;;;23.80;99.90;;;;;;5031710;28;19992;-68
2021/07/25 08:25:36;;;;;;;;;;;23.90;99.90;;;;;;5030864;28;19905;-68
2021/07/25 08:28:02;;;;;;;;;;;24.00;99.90;;;;;;5031793;28;19917;-68
2021/07/25 08:30:29;;;;;;;;;;;24.10;99.90;;;;;;5032334;28;20373;-68
2021/07/25 08:32:55;;;;;;;;;;;24.20;99.90;;;;;;5031943;28;20510;-68
2021/07/25 08:35:21;;;;;;;;;;;24.20;99.90;;;;;;5027805;28;19915;-69
2021/07/25 08:37:46;;;;;;;;;;;24.30;99.90;;;;;;5032088;28;19905;-68
2021/07/25 08:40:13;;;;;;;;;;;24.40;99.90;;;;;;5031893;28;19905;-68
2021/07/25 08:42:44;;;;;;;;;;;24.30;99.90;;;;;;5031974;28;20015;-69
2021/07/25 08:45:10;;;;;;;;;;;24.30;99.90;;;;;;5006403;28;19909;-68
2021/07/25 08:47:36;;;;;;;;;;;24.30;99.90;;;;;;5013356;28;19909;-68
2021/07/25 08:50:07;;;;;;;;;;;24.40;99.90;;;;;;5021551;28;19909;-68
2021/07/25 08:52:45;;;;;;;;;;;24.50;99.90;;;;;;5029903;28;19909;-68
2021/07/25 08:55:13;;;;;;;;;;;24.60;99.90;;;;;;5013858;28;19909;-68
2021/07/25 08:57:39;;;;;;;;;;;24.60;99.90;;;;;;5031590;28;19992;-68
2021/07/25 09:00:09;;;;;;;;;;;24.60;99.90;;;;;;5038915;28;19908;-67
2021/07/25 09:02:35;;;;;;;;;;;24.70;99.90;;;;;;5032858;28;19913;-67
2021/07/25 09:05:01;;;;;;;;;;;24.70;99.90;;;;;;5031448;28;20004;-68
2021/07/25 09:07:28;;;;;;;;;;;24.80;99.90;;;;;;5012664;28;19909;-68
2021/07/25 09:09:57;;;;;;;;;;;24.90;99.90;;;;;;5031882;28;19916;-68
2021/07/25 09:12:25;;;;;;;;;;;25.00;99.90;;;;;;5032352;28;20266;-68
2021/07/25 09:14:58;;;;;;;;;;;25.00;99.90;;;;;;5031574;28;20423;-68
2021/07/25 09:17:24;;;;;;;;;;;25.00;99.90;;;;;;5039052;28;19991;-68
2021/07/25 09:20:08;;;;;;;;;;;25.00;99.90;;;;;;5034923;28;20430;-68
2021/07/25 09:22:33;;;;;;;;;;;25.00;99.90;;;;;;5013754;28;19909;-68
2021/07/25 09:24:59;;;;;;;;;;;25.20;99.90;;;;;;5031370;28;20015;-68
2021/07/25 09:27:24;;;;;;;;;;;25.20;99.90;;;;;;5030360;28;20392;-68
2021/07/25 09:29:50;;;;;;;;;;;25.20;99.90;;;;;;5030810;28;20023;-68
2021/07/25 09:32:16;;;;;;;;;;;25.20;99.90;;;;;;5031443;28;19905;-68
2021/07/25 09:34:43;;;;;;;;;;;25.30;99.90;;;;;;5013355;28;19906;-68
2021/07/25 09:37:10;;;;;;;;;;;25.40;99.90;;;;;;5033496;28;19924;-68
2021/07/25 09:39:37;;;;;;;;;;;25.40;99.90;;;;;;5031114;28;19909;-68
2021/07/25 09:42:02;;;;;;;;;;;25.50;99.90;;;;;;5031620;28;20396;-68
2021/07/25 09:44:32;;;;;;;;;;;25.60;99.90;;;;;;5025242;28;19913;-68
2021/07/25 09:46:57;;;;;;;;;;;25.50;99.90;;;;;;5027075;28;19972;-68
2021/07/25 09:49:39;;;;;;;;;;;25.60;99.90;;;;;;5025246;28;20330;-68
2021/07/25 09:52:07;;;;;;;;;;;25.70;99.90;;;;;;5026516;28;19963;-68
2021/07/25 09:54:32;;;;;;;;;;;25.80;99.90;;;;;;5030725;28;20332;-68
2021/07/25 09:57:08;;;;;;;;;;;25.90;99.90;;;;;;5020220;28;19912;-67
2021/07/25 09:59:35;;;;;;;;;;;26.00;99.90;;;;;;5017209;28;20347;-66
2021/07/25 10:02:00;;;;;;;;;;;26.20;99.90;;;;;;5033663;28;19909;-66
2021/07/25 10:04:26;;;;;;;;;;;26.20;99.90;;;;;;5025508;28;19931;-69
2021/07/25 10:06:54;;;;;;;;;;;26.30;99.90;;;;;;5034369;28;19943;-69
2021/07/25 10:09:20;;;;;;;;;;;26.40;99.90;;;;;;5041886;28;20365;-68
2021/07/25 10:11:46;;;;;;;;;;;26.30;99.90;;;;;;5037727;28;20341;-68
2021/07/25 10:14:14;;;;;;;;;;;26.40;99.90;;;;;;5034667;28;19905;-68
2021/07/25 10:16:40;;;;;;;;;;;26.40;99.90;;;;;;5034488;28;20184;-69
2021/07/25 10:19:07;;;;;;;;;;;26.50;99.90;;;;;;5035150;28;20407;-68
2021/07/25 10:21:36;;;;;;;;;;;26.60;99.90;;;;;;5031083;28;19909;-68
2021/07/25 10:24:02;;;;;;;;;;;26.60;99.90;;;;;;5034103;28;20012;-68
2021/07/25 10:26:28;;;;;;;;;;;26.60;99.90;;;;;;5032895;28;19924;-68
2021/07/25 10:28:54;;;;;;;;;;;26.60;99.90;;;;;;5034408;28;19913;-68
2021/07/25 10:31:24;;;;;;;;;;;26.60;99.90;;;;;;5016461;28;19959;-68
2021/07/25 10:33:50;;;;;;;;;;;26.60;99.90;;;;;;5033403;28;20273;-68
2021/07/25 10:36:20;;;;;;;;;;;26.70;99.90;;;;;;5035431;28;19909;-65
2021/07/25 10:38:45;;;;;;;;;;;26.80;99.90;;;;;;5033946;28;19925;-68
2021/07/25 10:41:13;;;;;;;;;;;26.90;99.90;;;;;;5016528;28;19909;-65
2021/07/25 10:43:39;;;;;;;;;;;27.00;99.90;;;;;;5009928;28;19971;-65
2021/07/25 10:46:13;;;;;;;;;;;27.00;99.90;;;;;;5028038;28;20373;-66
2021/07/25 10:48:59;;;;;;;;;;;27.10;99.90;;;;;;5027566;28;19920;-66
2021/07/25 10:51:25;;;;;;;;;;;27.10;99.90;;;;;;5023297;28;19932;-66
2021/07/25 10:53:51;;;;;;;;;;;27.20;99.90;;;;;;5034201;28;20360;-66
2021/07/25 10:56:16;;;;;;;;;;;27.30;99.90;;;;;;5016809;28;19939;-65
2021/07/25 10:58:57;;;;;;;;;;;27.30;99.90;;;;;;5032119;28;20289;-66
2021/07/25 11:01:50;;;;;;;;;;;27.40;99.90;;;;;;5016226;28;19915;-66
2021/07/25 11:04:35;;;;;;;;;;;27.50;99.90;;;;;;5028693;28;19905;-66
2021/07/25 11:07:20;;;;;;;;;;;27.50;99.90;;;;;;5015536;28;19989;-66
2021/07/25 11:09:55;;;;;;;;;;;27.70;99.90;;;;;;5032452;28;19920;-66
2021/07/25 11:12:21;;;;;;;;;;;27.70;99.90;;;;;;5060752;22;19931;-74
2021/07/25 11:14:56;;;;;;;;;;;27.70;99.90;;;;;;5071582;28;20376;-72
2021/07/25 11:17:40;;;;;;;;;;;27.70;99.90;;;;;;5073353;28;20359;-72
2021/07/25 11:20:05;;;;;;;;;;;27.80;99.90;;;;;;5067110;28;19911;-73
2021/07/25 11:22:43;;;;;;;;;;;27.90;99.90;;;;;;5058701;28;20003;-71
2021/07/25 11:25:09;;;;;;;;;;;27.90;99.90;;;;;;5055699;28;19909;-74
2021/07/25 11:27:47;;;;;;;;;;;28.00;99.90;;;;;;5033892;28;20357;-73
2021/07/25 11:30:12;;;;;;;;;;;28.10;99.90;;;;;;5053144;28;20284;-72
2021/07/25 11:32:38;;;;;;;;;;;28.10;99.90;;;;;;5039452;28;19908;-72
2021/07/25 11:35:05;;;;;;;;;;;28.20;99.90;;;;;;5055204;28;20007;-72
2021/07/25 11:37:40;;;;;;;;;;;28.30;99.90;;;;;;5048389;28;19905;-72
2021/07/25 11:40:07;;;;;;;;;;;28.30;99.90;;;;;;5055563;28;19908;-72
2021/07/25 11:42:33;;;;;;;;;;;28.50;99.90;;;;;;5052402;28;20454;-72
2021/07/25 11:45:05;;;;;;;;;;;28.60;99.90;;;;;;5046635;28;20266;-72
2021/07/25 11:47:32;;;;;;;;;;;28.60;99.90;;;;;;5048962;28;19959;-72
2021/07/25 11:49:57;;;;;;;;;;;28.60;99.90;;;;;;5015178;28;19963;-72
2021/07/25 11:52:27;;;;;;;;;;;28.60;99.90;;;;;;5041071;28;19908;-72
2021/07/25 11:54:52;;;;;;;;;;;28.70;99.90;;;;;;5056115;28;19909;-75
2021/07/25 11:57:23;;;;;;;;;;;28.80;99.90;;;;;;5036215;28;19955;-75
2021/07/25 11:59:53;;;;;;;;;;;29.00;99.90;;;;;;5052464;28;19951;-74
2021/07/25 12:02:23;;;;;;;;;;;29.00;99.90;;;;;;5038985;28;19915;-75
2021/07/25 12:04:48;;;;;;;;;;;29.10;99.90;;;;;;5046616;28;20376;-74
2021/07/25 12:07:20;;;;;;;;;;;29.30;99.90;;;;;;5039703;28;19962;-73
2021/07/25 12:09:45;;;;;;;;;;;29.50;99.90;;;;;;5048231;28;19913;-73
2021/07/25 12:12:12;;;;;;;;;;;29.60;99.90;;;;;;5044336;28;19948;-74
2021/07/25 12:14:40;;;;;;;;;;;29.80;99.90;;;;;;5050301;28;20272;-73
2021/07/25 12:17:05;;;;;;;;;;;29.80;99.90;;;;;;5046337;28;19974;-74
2021/07/25 12:19:38;;;;;;;;;;;30.00;99.90;;;;;;5036333;28;20368;-74
2021/07/25 12:22:05;;;;;;;;;;;30.00;99.90;;;;;;5051787;28;19963;-74
2021/07/25 12:24:35;;;;;;;;;;;30.00;99.90;;;;;;5033757;28;19944;-72
2021/07/25 12:27:01;;;;;;;;;;;30.10;99.90;;;;;;5053249;28;20223;-74
2021/07/25 12:29:36;;;;;;;;;;;30.10;99.90;;;;;;5050115;28;19913;-74
2021/07/25 12:32:20;;;;;;;;;;;30.10;99.90;;;;;;5046772;28;20007;-74
2021/07/25 12:34:45;;;;;;;;;;;30.20;99.90;;;;;;5054364;28;19913;-73
2021/07/25 12:37:27;;;;;;;;;;;30.30;99.90;;;;;;5046142;28;19913;-73
2021/07/25 12:40:02;;;;;;;;;;;30.40;99.90;;;;;;5052081;28;20264;-72
2021/07/25 12:42:34;;;;;;;;;;;30.40;99.90;;;;;;5050982;28;19912;-73
2021/07/25 12:45:20;;;;;;;;;;;30.50;99.90;;;;;;5050560;28;19908;-73
2021/07/25 12:47:45;;;;;;;;;;;30.40;99.90;;;;;;5042499;28;19991;-74
2021/07/25 12:50:11;;;;;;;;;;;30.30;99.90;;;;;;5033541;28;19942;-73
2021/07/25 12:52:36;;;;;;;;;;;30.20;99.90;;;;;;5051277;28;19905;-73
2021/07/25 12:55:01;;;;;;;;;;;30.20;99.90;;;;;;5052740;28;19952;-73
2021/07/25 12:57:27;;;;;;;;;;;30.10;99.90;;;;;;5046894;28;19904;-72
2021/07/25 12:59:52;;;;;;;;;;;30.10;99.90;;;;;;5037102;28;20273;-72
2021/07/25 13:05:02;;;;;;;;;;;30.10;99.90;;;;;;5045389;28;20323;-73
2021/07/25 13:07:27;;;;;;;;;;;30.10;99.90;;;;;;5043650;28;19908;-73
2021/07/25 13:09:53;;;;;;;;;;;30.10;99.90;;;;;;5033152;28;19908;-73
2021/07/25 13:12:18;;;;;;;;;;;30.00;99.90;;;;;;5028842;28;19913;-73
2021/07/25 13:14:44;;;;;;;;;;;29.80;99.90;;;;;;5026131;28;19905;-74
2021/07/25 13:17:09;;;;;;;;;;;29.70;99.90;;;;;;5051486;28;20292;-72
2021/07/25 13:19:35;;;;;;;;;;;29.60;99.90;;;;;;5033540;28;19916;-74
2021/07/25 13:22:00;;;;;;;;;;;29.50;99.90;;;;;;5051244;28;19924;-74
2021/07/25 13:24:25;;;;;;;;;;;29.50;99.90;;;;;;5047674;28;19915;-72
2021/07/25 13:26:51;;;;;;;;;;;29.50;99.90;;;;;;5055028;28;19963;-73
2021/07/25 13:29:16;;;;;;;;;;;29.50;99.90;;;;;;5056299;28;20377;-73
2021/07/25 13:31:42;;;;;;;;;;;29.50;99.90;;;;;;5059652;28;20372;-72
2021/07/25 13:34:07;;;;;;;;;;;29.50;99.90;;;;;;5072287;28;19934;-72
2021/07/25 13:36:33;;;;;;;;;;;29.50;99.90;;;;;;5058443;28;19970;-74
2021/07/25 13:38:58;;;;;;;;;;;29.50;99.90;;;;;;5036203;28;19963;-74
2021/07/25 13:41:24;;;;;;;;;;;29.50;99.90;;;;;;5037080;28;20352;-72
2021/07/25 13:43:50;;;;;;;;;;;29.50;99.90;;;;;;5047918;28;19905;-72
2021/07/25 13:46:22;;;;;;;;;;;29.50;99.90;;;;;;5039509;28;19916;-72
2021/07/25 13:48:48;;;;;;;;;;;29.60;99.90;;;;;;5062146;28;19935;-72
2021/07/25 13:51:17;;;;;;;;;;;29.50;99.90;;;;;;5034911;28;20358;-72
2021/07/25 13:53:46;;;;;;;;;;;29.70;99.90;;;;;;5034798;28;19921;-72
2021/07/25 13:56:15;;;;;;;;;;;29.80;99.90;;;;;;5034702;28;20019;-72
2021/07/25 13:58:40;;;;;;;;;;;29.80;99.90;;;;;;5037491;28;19909;-72
2021/07/25 14:01:06;;;;;;;10.00;9.20;;;30.00;99.90;;;;;;5033153;28;24428;-72
2021/07/25 14:03:32;;;;;;;9.73;9.03;;;30.20;99.90;;;;;;5029271;28;20183;-72
2021/07/25 14:05:57;;;;;;;9.80;9.10;;;30.40;99.90;;;;;;5034274;28;20188;-72
2021/07/25 14:08:23;;;;;;;10.60;9.80;;;30.60;99.90;;;;;;5047598;28;20218;-72
2021/07/25 14:10:48;;;;;;;9.73;9.03;;;30.90;99.90;;;;;;5026661;28;20223;-73
2021/07/25 14:13:14;;;;;;;;;;;31.10;99.90;;;;;;5049947;28;20258;-73
2021/07/25 14:15:39;;;;;;;;;;;31.30;99.90;;;;;;5048735;28;19928;-72
2021/07/25 14:18:08;;;;;;;;;;;31.50;99.90;;;;;;5040883;28;19905;-72
2021/07/25 14:20:40;;;;;;;;;;;31.80;99.90;;;;;;5060830;28;19909;-72
2021/07/25 14:23:07;;;;;;;;;;;32.10;99.90;;;;;;5049198;28;19909;-73